Abington, Massachusetts
Current Conditions -  °F | °C
As of 8:53 PM on Saturday 22 Nov 2014 (Local Time) from KOWD Reporting Station
Clear Clear  
Wind Chill:   Ceiling: Unl
Heat Index:   Visibility: 10mi
Dew Point: -7°   Wind: 8mph
Humidity: 43%   Direction: 220°SW
Pressure: 30.11"   Gusts: NA
Location:  42.12°N, 70.96°W
Report Text: KOWD 230153Z AUTO 22007KT 10SM CLR 04/M07 A3011 RMK AO2 SLP195 T00441072
Loading
Personal Weather Stations






























Interactive Weather Map New forecast layout! Learn more

10-Day Weather Forecast

Advertisements
Track Severe Weather on mobile